Overview Statistics Trail Chart Weather Telemetry Raw packets
 

This is the latest recevied weather packets stored in our database for station/object EA4BHK-10. If no packets are shown the sender has not sent any weather packets the latest 10 day(s).

<< 27 28 29 30 31 32 33 >>
Time Temp. Humidity Pressure Rain* Wind** Luminosity Snow
1787936878 23.89° C 16% 1017.5 hPa - - - -
1787935978 24.44° C 15% 1017.4 hPa - - - -
1787935078 25° C 14% 1017.1 hPa - - - -
1787934178 25.56° C 14% 1016.8 hPa - - - -
1787933278 25.56° C 13% 1016.8 hPa - - - -
1787932378 26.11° C 13% 1016.9 hPa - - - -
1787931478 26.67° C 13% 1016.8 hPa - - - -
1787930578 26.67° C 13% 1016.8 hPa - - - -
1787929678 27.22° C 14% 1016.8 hPa - - - -
1787928778 27.22° C 14% 1016.7 hPa - - - -
1787927863 27.22° C 13% 1016.7 hPa - - - -
1787926963 27.22° C 15% 1016.7 hPa - - - -
1787926063 27.78° C 14% 1016.8 hPa - - - -
1787925163 27.22° C 15% 1017 hPa - - - -
1787924263 27.22° C 15% 1017.2 hPa - - - -
1787923363 27.22° C 16% 1017.3 hPa - - - -
1787922463 27.22° C 17% 1017.7 hPa - - - -
1787921563 26.67° C 18% 1017.8 hPa - - - -
1787920663 26.11° C 19% 1018.2 hPa - - - -
1787919763 25.56° C 20% 1018.5 hPa - - - -
1787918863 26.11° C 20% 1018.5 hPa - - - -
1787917963 26.11° C 21% 1018.5 hPa - - - -
1787917063 25° C 22% 1018.9 hPa - - - -
1787916163 25° C 22% 1018.9 hPa - - - -
1787915263 24.44° C 24% 1019.3 hPa - - - -

* Rain since midnight (hover to see other rain measurements)
** Current wind speed in m/s (hover to see current wind gust speed)